Terminal Aerodrome Forecast
Issued by NWS

Home | Current Version | Previous Version | Text Only | Print | Product List | Glossary On
Versions: 1 2 3 4 5 6 7 8 9 10 11 12 13 14 15 16 17 18 19 20 21 22 23 24 25 26 27 28
866
FTUS41 KILN 161738
TAFLUK
TAF
KLUK 161738Z 1618/1718 VRB03KT 4SM BR VCSH OVC007
     FM170000 15004KT 3SM -SHRA BR OVC007
     FM170600 17004KT 2SM -SHRA BR OVC007 WS020/20040KT
     FM171500 21008KT P6SM SCT006 OVC011
     FM171700 23010KT P6SM BKN025 BKN080=

USA.gov is the U.S. government's official web portal to all federal, state and local government web resources and services.